sensor_id;sensor_type;location;lat;lon;timestamp;P1;durP1;ratioP1;P2;durP2;ratioP2
45043;SDS011;30784;48.490;9.688;2023-03-04T00:01:01;39.42;;;20.00;;
45043;SDS011;30784;48.490;9.688;2023-03-04T00:03:27;39.40;;;21.33;;
45043;SDS011;30784;48.490;9.688;2023-03-04T00:05:52;38.00;;;20.15;;
45043;SDS011;30784;48.490;9.688;2023-03-04T00:08:18;40.35;;;22.15;;
45043;SDS011;30784;48.490;9.688;2023-03-04T00:10:44;41.15;;;21.83;;
45043;SDS011;30784;48.490;9.688;2023-03-04T00:13:09;45.13;;;22.13;;
45043;SDS011;30784;48.490;9.688;2023-03-04T00:15:35;40.60;;;21.77;;
45043;SDS011;30784;48.490;9.688;2023-03-04T00:18:00;38.90;;;21.42;;
45043;SDS011;30784;48.490;9.688;2023-03-04T00:20:26;41.17;;;21.23;;
45043;SDS011;30784;48.490;9.688;2023-03-04T00:22:51;41.00;;;20.55;;
45043;SDS011;30784;48.490;9.688;2023-03-04T00:25:17;36.75;;;19.63;;
45043;SDS011;30784;48.490;9.688;2023-03-04T00:27:42;46.47;;;22.85;;
45043;SDS011;30784;48.490;9.688;2023-03-04T00:30:08;41.25;;;21.92;;
45043;SDS011;30784;48.490;9.688;2023-03-04T00:32:34;43.67;;;22.40;;
45043;SDS011;30784;48.490;9.688;2023-03-04T00:35:00;44.15;;;22.67;;
45043;SDS011;30784;48.490;9.688;2023-03-04T00:37:25;46.55;;;22.23;;
45043;SDS011;30784;48.490;9.688;2023-03-04T00:39:51;42.42;;;22.35;;
45043;SDS011;30784;48.490;9.688;2023-03-04T00:42:16;44.92;;;22.20;;
45043;SDS011;30784;48.490;9.688;2023-03-04T00:44:42;41.53;;;22.08;;
45043;SDS011;30784;48.490;9.688;2023-03-04T00:47:07;42.67;;;22.05;;
45043;SDS011;30784;48.490;9.688;2023-03-04T00:49:33;41.72;;;22.27;;
45043;SDS011;30784;48.490;9.688;2023-03-04T00:51:58;40.80;;;21.95;;
45043;SDS011;30784;48.490;9.688;2023-03-04T00:54:24;54.15;;;28.95;;
45043;SDS011;30784;48.490;9.688;2023-03-04T00:56:50;45.55;;;23.88;;
45043;SDS011;30784;48.490;9.688;2023-03-04T00:59:15;48.00;;;24.50;;
45043;SDS011;30784;48.490;9.688;2023-03-04T01:01:41;41.38;;;21.77;;
45043;SDS011;30784;48.490;9.688;2023-03-04T01:04:06;44.10;;;22.42;;
45043;SDS011;30784;48.490;9.688;2023-03-04T01:06:31;43.72;;;22.27;;
45043;SDS011;30784;48.490;9.688;2023-03-04T01:08:57;42.78;;;22.65;;
45043;SDS011;30784;48.490;9.688;2023-03-04T01:11:23;46.65;;;22.85;;
45043;SDS011;30784;48.490;9.688;2023-03-04T01:13:48;42.53;;;21.98;;
45043;SDS011;30784;48.490;9.688;2023-03-04T01:16:14;41.42;;;21.70;;
45043;SDS011;30784;48.490;9.688;2023-03-04T01:18:39;44.28;;;22.65;;
45043;SDS011;30784;48.490;9.688;2023-03-04T01:21:05;42.22;;;21.65;;
45043;SDS011;30784;48.490;9.688;2023-03-04T01:23:31;44.90;;;21.92;;
45043;SDS011;30784;48.490;9.688;2023-03-04T01:25:56;42.00;;;22.33;;
45043;SDS011;30784;48.490;9.688;2023-03-04T01:28:22;43.30;;;22.67;;
45043;SDS011;30784;48.490;9.688;2023-03-04T01:30:47;42.47;;;21.67;;
45043;SDS011;30784;48.490;9.688;2023-03-04T01:33:13;43.55;;;21.52;;
45043;SDS011;30784;48.490;9.688;2023-03-04T01:35:39;39.90;;;19.98;;
45043;SDS011;30784;48.490;9.688;2023-03-04T01:38:05;37.65;;;20.13;;
45043;SDS011;30784;48.490;9.688;2023-03-04T01:40:30;49.33;;;25.00;;
45043;SDS011;30784;48.490;9.688;2023-03-04T01:42:56;44.78;;;24.10;;
45043;SDS011;30784;48.490;9.688;2023-03-04T01:45:22;44.83;;;23.73;;
45043;SDS011;30784;48.490;9.688;2023-03-04T01:47:48;40.03;;;21.63;;
45043;SDS011;30784;48.490;9.688;2023-03-04T01:52:54;42.65;;;21.13;;
45043;SDS011;30784;48.490;9.688;2023-03-04T01:55:20;38.70;;;20.70;;
45043;SDS011;30784;48.490;9.688;2023-03-04T01:57:48;44.10;;;21.52;;
45043;SDS011;30784;48.490;9.688;2023-03-04T02:03:09;42.03;;;20.92;;
45043;SDS011;30784;48.490;9.688;2023-03-04T02:05:38;40.20;;;21.52;;
45043;SDS011;30784;48.490;9.688;2023-03-04T02:08:07;39.90;;;20.52;;
45043;SDS011;30784;48.490;9.688;2023-03-04T02:10:37;39.80;;;19.92;;
45043;SDS011;30784;48.490;9.688;2023-03-04T02:13:03;39.40;;;20.75;;
45043;SDS011;30784;48.490;9.688;2023-03-04T02:15:29;42.72;;;21.67;;
45043;SDS011;30784;48.490;9.688;2023-03-04T02:17:55;38.65;;;20.75;;
45043;SDS011;30784;48.490;9.688;2023-03-04T02:20:42;39.58;;;20.70;;
45043;SDS011;30784;48.490;9.688;2023-03-04T02:23:15;39.35;;;20.55;;
45043;SDS011;30784;48.490;9.688;2023-03-04T02:25:47;43.00;;;20.80;;
45043;SDS011;30784;48.490;9.688;2023-03-04T02:28:19;45.10;;;23.45;;
45043;SDS011;30784;48.490;9.688;2023-03-04T02:30:48;41.05;;;21.00;;
45043;SDS011;30784;48.490;9.688;2023-03-04T02:33:14;41.42;;;21.90;;
45043;SDS011;30784;48.490;9.688;2023-03-04T02:35:42;44.33;;;22.13;;
45043;SDS011;30784;48.490;9.688;2023-03-04T02:38:10;48.20;;;23.80;;
45043;SDS011;30784;48.490;9.688;2023-03-04T02:40:36;46.30;;;23.45;;
45043;SDS011;30784;48.490;9.688;2023-03-04T02:43:10;41.03;;;20.85;;
45043;SDS011;30784;48.490;9.688;2023-03-04T02:45:41;46.90;;;23.00;;
45043;SDS011;30784;48.490;9.688;2023-03-04T02:48:14;43.25;;;22.00;;
45043;SDS011;30784;48.490;9.688;2023-03-04T02:50:45;49.13;;;25.08;;
45043;SDS011;30784;48.490;9.688;2023-03-04T02:53:12;41.63;;;21.37;;
45043;SDS011;30784;48.490;9.688;2023-03-04T02:55:39;44.55;;;22.30;;
45043;SDS011;30784;48.490;9.688;2023-03-04T02:58:06;46.50;;;23.00;;
45043;SDS011;30784;48.490;9.688;2023-03-04T03:00:32;49.13;;;23.20;;
45043;SDS011;30784;48.490;9.688;2023-03-04T03:02:57;45.85;;;22.83;;
45043;SDS011;30784;48.490;9.688;2023-03-04T03:05:26;43.67;;;22.95;;
45043;SDS011;30784;48.490;9.688;2023-03-04T03:07:54;45.05;;;22.90;;
45043;SDS011;30784;48.490;9.688;2023-03-04T03:10:20;40.35;;;21.85;;
45043;SDS011;30784;48.490;9.688;2023-03-04T03:12:45;45.50;;;22.70;;
45043;SDS011;30784;48.490;9.688;2023-03-04T03:15:14;43.42;;;22.52;;
45043;SDS011;30784;48.490;9.688;2023-03-04T03:17:40;41.97;;;20.95;;
45043;SDS011;30784;48.490;9.688;2023-03-04T03:20:06;46.55;;;23.67;;
45043;SDS011;30784;48.490;9.688;2023-03-04T03:22:33;40.35;;;20.38;;
45043;SDS011;30784;48.490;9.688;2023-03-04T03:24:59;42.78;;;21.75;;
45043;SDS011;30784;48.490;9.688;2023-03-04T03:27:24;42.58;;;20.85;;
45043;SDS011;30784;48.490;9.688;2023-03-04T03:29:50;45.00;;;22.13;;
45043;SDS011;30784;48.490;9.688;2023-03-04T03:32:15;43.05;;;21.50;;
45043;SDS011;30784;48.490;9.688;2023-03-04T03:34:41;43.60;;;20.90;;
45043;SDS011;30784;48.490;9.688;2023-03-04T03:37:06;44.35;;;21.73;;
45043;SDS011;30784;48.490;9.688;2023-03-04T03:39:32;57.35;;;27.70;;
45043;SDS011;30784;48.490;9.688;2023-03-04T03:41:57;43.45;;;22.20;;
45043;SDS011;30784;48.490;9.688;2023-03-04T03:44:23;48.80;;;24.80;;
45043;SDS011;30784;48.490;9.688;2023-03-04T03:46:48;46.50;;;23.13;;
45043;SDS011;30784;48.490;9.688;2023-03-04T03:49:14;44.15;;;21.90;;
45043;SDS011;30784;48.490;9.688;2023-03-04T03:51:41;45.40;;;22.30;;
45043;SDS011;30784;48.490;9.688;2023-03-04T03:54:07;45.13;;;22.52;;
45043;SDS011;30784;48.490;9.688;2023-03-04T03:56:33;43.05;;;22.05;;
45043;SDS011;30784;48.490;9.688;2023-03-04T03:58:58;41.47;;;21.63;;
45043;SDS011;30784;48.490;9.688;2023-03-04T04:01:24;42.53;;;22.35;;
45043;SDS011;30784;48.490;9.688;2023-03-04T04:03:49;43.58;;;21.40;;
45043;SDS011;30784;48.490;9.688;2023-03-04T04:06:15;45.22;;;22.27;;
45043;SDS011;30784;48.490;9.688;2023-03-04T04:08:43;47.08;;;21.80;;
45043;SDS011;30784;48.490;9.688;2023-03-04T04:11:09;43.40;;;21.50;;
45043;SDS011;30784;48.490;9.688;2023-03-04T04:13:36;38.75;;;21.08;;
45043;SDS011;30784;48.490;9.688;2023-03-04T04:16:02;42.47;;;21.58;;
45043;SDS011;30784;48.490;9.688;2023-03-04T04:18:27;43.03;;;20.92;;
45043;SDS011;30784;48.490;9.688;2023-03-04T04:20:53;38.28;;;20.25;;
45043;SDS011;30784;48.490;9.688;2023-03-04T04:23:19;41.30;;;20.35;;
45043;SDS011;30784;48.490;9.688;2023-03-04T04:25:45;45.55;;;20.60;;
45043;SDS011;30784;48.490;9.688;2023-03-04T04:28:11;37.88;;;18.83;;
45043;SDS011;30784;48.490;9.688;2023-03-04T04:30:36;38.83;;;19.35;;
45043;SDS011;30784;48.490;9.688;2023-03-04T04:33:02;39.15;;;20.88;;
45043;SDS011;30784;48.490;9.688;2023-03-04T04:35:29;40.88;;;20.60;;
45043;SDS011;30784;48.490;9.688;2023-03-04T04:37:58;43.17;;;20.83;;
45043;SDS011;30784;48.490;9.688;2023-03-04T04:40:24;38.60;;;20.38;;
45043;SDS011;30784;48.490;9.688;2023-03-04T04:42:50;39.20;;;19.73;;
45043;SDS011;30784;48.490;9.688;2023-03-04T04:45:15;38.13;;;19.10;;
45043;SDS011;30784;48.490;9.688;2023-03-04T04:47:41;40.40;;;20.05;;
45043;SDS011;30784;48.490;9.688;2023-03-04T04:50:07;40.55;;;19.98;;
45043;SDS011;30784;48.490;9.688;2023-03-04T04:52:33;41.40;;;19.58;;
45043;SDS011;30784;48.490;9.688;2023-03-04T04:54:58;38.63;;;19.42;;
45043;SDS011;30784;48.490;9.688;2023-03-04T04:57:24;40.50;;;19.40;;
45043;SDS011;30784;48.490;9.688;2023-03-04T04:59:50;39.55;;;19.67;;
45043;SDS011;30784;48.490;9.688;2023-03-04T05:02:15;39.92;;;19.85;;
45043;SDS011;30784;48.490;9.688;2023-03-04T05:04:41;43.10;;;20.55;;
45043;SDS011;30784;48.490;9.688;2023-03-04T05:07:06;40.17;;;19.60;;
45043;SDS011;30784;48.490;9.688;2023-03-04T05:09:32;42.60;;;19.77;;
45043;SDS011;30784;48.490;9.688;2023-03-04T05:11:58;36.67;;;18.88;;
45043;SDS011;30784;48.490;9.688;2023-03-04T05:14:23;41.13;;;20.40;;
45043;SDS011;30784;48.490;9.688;2023-03-04T05:16:51;39.20;;;19.58;;
45043;SDS011;30784;48.490;9.688;2023-03-04T05:19:17;42.95;;;20.98;;
45043;SDS011;30784;48.490;9.688;2023-03-04T05:21:43;40.47;;;19.77;;
45043;SDS011;30784;48.490;9.688;2023-03-04T05:24:08;42.17;;;20.73;;
45043;SDS011;30784;48.490;9.688;2023-03-04T05:26:36;38.85;;;18.92;;
45043;SDS011;30784;48.490;9.688;2023-03-04T05:29:02;40.85;;;20.73;;
45043;SDS011;30784;48.490;9.688;2023-03-04T05:31:28;38.67;;;19.55;;
45043;SDS011;30784;48.490;9.688;2023-03-04T05:33:54;39.17;;;18.33;;
45043;SDS011;30784;48.490;9.688;2023-03-04T05:36:20;36.83;;;17.65;;
45043;SDS011;30784;48.490;9.688;2023-03-04T05:38:45;36.50;;;18.92;;
45043;SDS011;30784;48.490;9.688;2023-03-04T05:41:11;36.50;;;16.88;;
45043;SDS011;30784;48.490;9.688;2023-03-04T05:43:36;35.63;;;16.42;;
45043;SDS011;30784;48.490;9.688;2023-03-04T05:46:06;31.65;;;16.15;;
45043;SDS011;30784;48.490;9.688;2023-03-04T05:48:35;32.35;;;15.73;;
45043;SDS011;30784;48.490;9.688;2023-03-04T05:51:01;30.27;;;15.30;;
45043;SDS011;30784;48.490;9.688;2023-03-04T05:53:27;33.75;;;16.10;;
45043;SDS011;30784;48.490;9.688;2023-03-04T05:55:53;30.70;;;14.55;;
45043;SDS011;30784;48.490;9.688;2023-03-04T05:58:19;33.60;;;16.08;;
45043;SDS011;30784;48.490;9.688;2023-03-04T06:00:45;27.10;;;13.95;;
45043;SDS011;30784;48.490;9.688;2023-03-04T06:03:17;29.73;;;13.80;;
45043;SDS011;30784;48.490;9.688;2023-03-04T06:05:44;31.65;;;14.73;;
45043;SDS011;30784;48.490;9.688;2023-03-04T06:08:10;34.22;;;15.23;;
45043;SDS011;30784;48.490;9.688;2023-03-04T06:10:37;28.83;;;13.95;;
45043;SDS011;30784;48.490;9.688;2023-03-04T06:13:04;31.65;;;14.52;;
45043;SDS011;30784;48.490;9.688;2023-03-04T06:15:29;29.40;;;13.95;;
45043;SDS011;30784;48.490;9.688;2023-03-04T06:17:56;30.08;;;14.00;;
45043;SDS011;30784;48.490;9.688;2023-03-04T06:20:21;31.13;;;14.10;;
45043;SDS011;30784;48.490;9.688;2023-03-04T06:22:47;33.80;;;14.23;;
45043;SDS011;30784;48.490;9.688;2023-03-04T06:25:12;30.85;;;15.05;;
45043;SDS011;30784;48.490;9.688;2023-03-04T06:27:38;28.55;;;13.43;;
45043;SDS011;30784;48.490;9.688;2023-03-04T06:30:04;29.48;;;13.88;;
45043;SDS011;30784;48.490;9.688;2023-03-04T06:32:30;28.73;;;13.85;;
45043;SDS011;30784;48.490;9.688;2023-03-04T06:34:55;28.52;;;14.15;;
45043;SDS011;30784;48.490;9.688;2023-03-04T06:37:21;29.95;;;13.85;;
45043;SDS011;30784;48.490;9.688;2023-03-04T06:39:46;30.85;;;13.93;;
45043;SDS011;30784;48.490;9.688;2023-03-04T06:42:12;36.78;;;15.43;;
45043;SDS011;30784;48.490;9.688;2023-03-04T06:44:38;33.58;;;14.93;;
45043;SDS011;30784;48.490;9.688;2023-03-04T06:47:03;31.00;;;14.65;;
45043;SDS011;30784;48.490;9.688;2023-03-04T06:49:29;31.05;;;14.60;;
45043;SDS011;30784;48.490;9.688;2023-03-04T06:51:54;29.15;;;13.65;;
45043;SDS011;30784;48.490;9.688;2023-03-04T06:54:20;29.20;;;14.30;;
45043;SDS011;30784;48.490;9.688;2023-03-04T06:56:46;28.10;;;13.32;;
45043;SDS011;30784;48.490;9.688;2023-03-04T06:59:11;26.65;;;12.23;;
45043;SDS011;30784;48.490;9.688;2023-03-04T07:01:37;27.73;;;13.02;;
45043;SDS011;30784;48.490;9.688;2023-03-04T07:04:02;26.55;;;12.40;;
45043;SDS011;30784;48.490;9.688;2023-03-04T07:06:28;28.80;;;13.57;;
45043;SDS011;30784;48.490;9.688;2023-03-04T07:08:54;30.85;;;15.07;;
45043;SDS011;30784;48.490;9.688;2023-03-04T07:11:21;29.65;;;15.23;;
45043;SDS011;30784;48.490;9.688;2023-03-04T07:13:47;31.77;;;16.35;;
45043;SDS011;30784;48.490;9.688;2023-03-04T07:16:14;32.92;;;16.00;;
45043;SDS011;30784;48.490;9.688;2023-03-04T07:18:42;32.58;;;16.50;;
45043;SDS011;30784;48.490;9.688;2023-03-04T07:21:08;31.73;;;17.45;;
45043;SDS011;30784;48.490;9.688;2023-03-04T07:23:33;37.17;;;18.00;;
45043;SDS011;30784;48.490;9.688;2023-03-04T07:25:59;37.22;;;17.42;;
45043;SDS011;30784;48.490;9.688;2023-03-04T07:28:25;36.40;;;17.83;;
45043;SDS011;30784;48.490;9.688;2023-03-04T07:30:51;39.22;;;19.60;;
45043;SDS011;30784;48.490;9.688;2023-03-04T07:33:17;41.50;;;20.38;;
45043;SDS011;30784;48.490;9.688;2023-03-04T07:35:42;38.53;;;18.08;;
45043;SDS011;30784;48.490;9.688;2023-03-04T07:38:08;36.88;;;18.25;;
45043;SDS011;30784;48.490;9.688;2023-03-04T07:40:34;35.40;;;18.23;;
45043;SDS011;30784;48.490;9.688;2023-03-04T07:42:59;39.50;;;20.00;;
45043;SDS011;30784;48.490;9.688;2023-03-04T07:45:25;39.22;;;20.40;;
45043;SDS011;30784;48.490;9.688;2023-03-04T07:47:51;38.58;;;19.38;;
45043;SDS011;30784;48.490;9.688;2023-03-04T07:50:18;39.15;;;19.13;;
45043;SDS011;30784;48.490;9.688;2023-03-04T07:52:45;36.95;;;18.50;;
45043;SDS011;30784;48.490;9.688;2023-03-04T07:55:12;37.80;;;18.65;;
45043;SDS011;30784;48.490;9.688;2023-03-04T07:57:39;35.00;;;18.52;;
45043;SDS011;30784;48.490;9.688;2023-03-04T08:00:06;36.70;;;18.30;;
45043;SDS011;30784;48.490;9.688;2023-03-04T08:02:32;36.83;;;19.27;;
45043;SDS011;30784;48.490;9.688;2023-03-04T08:04:58;36.47;;;18.40;;
45043;SDS011;30784;48.490;9.688;2023-03-04T08:07:23;35.70;;;17.63;;
45043;SDS011;30784;48.490;9.688;2023-03-04T08:09:49;33.92;;;17.70;;
45043;SDS011;30784;48.490;9.688;2023-03-04T08:12:14;36.22;;;18.65;;
45043;SDS011;30784;48.490;9.688;2023-03-04T08:14:40;31.88;;;17.15;;
45043;SDS011;30784;48.490;9.688;2023-03-04T08:17:05;31.42;;;17.60;;
45043;SDS011;30784;48.490;9.688;2023-03-04T08:19:31;35.17;;;19.05;;
45043;SDS011;30784;48.490;9.688;2023-03-04T08:21:56;31.75;;;17.48;;
45043;SDS011;30784;48.490;9.688;2023-03-04T08:24:22;28.23;;;15.45;;
45043;SDS011;30784;48.490;9.688;2023-03-04T08:26:48;30.63;;;17.10;;
45043;SDS011;30784;48.490;9.688;2023-03-04T08:29:16;30.63;;;17.05;;
45043;SDS011;30784;48.490;9.688;2023-03-04T08:31:45;30.70;;;16.80;;
45043;SDS011;30784;48.490;9.688;2023-03-04T08:34:11;31.70;;;17.05;;
45043;SDS011;30784;48.490;9.688;2023-03-04T08:36:38;34.20;;;18.65;;
45043;SDS011;30784;48.490;9.688;2023-03-04T08:39:06;31.50;;;17.17;;
45043;SDS011;30784;48.490;9.688;2023-03-04T08:41:33;32.65;;;18.15;;
45043;SDS011;30784;48.490;9.688;2023-03-04T08:43:59;32.42;;;18.90;;
45043;SDS011;30784;48.490;9.688;2023-03-04T08:46:25;31.67;;;18.38;;
45043;SDS011;30784;48.490;9.688;2023-03-04T08:48:51;31.98;;;18.08;;
45043;SDS011;30784;48.490;9.688;2023-03-04T08:51:17;33.05;;;18.05;;
45043;SDS011;30784;48.490;9.688;2023-03-04T08:53:43;29.15;;;16.35;;
45043;SDS011;30784;48.490;9.688;2023-03-04T08:56:08;30.33;;;15.85;;
45043;SDS011;30784;48.490;9.688;2023-03-04T08:58:35;29.77;;;16.88;;
45043;SDS011;30784;48.490;9.688;2023-03-04T09:01:01;26.25;;;15.15;;
45043;SDS011;30784;48.490;9.688;2023-03-04T09:03:27;28.02;;;16.40;;
45043;SDS011;30784;48.490;9.688;2023-03-04T09:05:53;27.75;;;16.58;;
45043;SDS011;30784;48.490;9.688;2023-03-04T09:08:19;27.60;;;16.13;;
45043;SDS011;30784;48.490;9.688;2023-03-04T09:10:45;27.42;;;15.98;;
45043;SDS011;30784;48.490;9.688;2023-03-04T09:13:11;26.10;;;14.75;;
45043;SDS011;30784;48.490;9.688;2023-03-04T09:15:44;25.50;;;15.05;;
45043;SDS011;30784;48.490;9.688;2023-03-04T09:18:13;25.42;;;16.02;;
45043;SDS011;30784;48.490;9.688;2023-03-04T09:20:40;28.75;;;16.67;;
45043;SDS011;30784;48.490;9.688;2023-03-04T09:23:05;26.70;;;15.40;;
45043;SDS011;30784;48.490;9.688;2023-03-04T09:25:31;28.25;;;16.00;;
45043;SDS011;30784;48.490;9.688;2023-03-04T09:27:57;24.55;;;14.65;;
45043;SDS011;30784;48.490;9.688;2023-03-04T09:30:22;27.73;;;15.95;;
45043;SDS011;30784;48.490;9.688;2023-03-04T09:32:48;24.52;;;15.25;;
45043;SDS011;30784;48.490;9.688;2023-03-04T09:35:14;25.45;;;14.88;;
45043;SDS011;30784;48.490;9.688;2023-03-04T09:37:39;22.73;;;13.68;;
45043;SDS011;30784;48.490;9.688;2023-03-04T09:40:05;25.30;;;15.25;;
45043;SDS011;30784;48.490;9.688;2023-03-04T09:42:36;25.17;;;15.13;;
45043;SDS011;30784;48.490;9.688;2023-03-04T09:45:06;24.13;;;14.80;;
45043;SDS011;30784;48.490;9.688;2023-03-04T09:47:35;25.02;;;15.10;;
45043;SDS011;30784;48.490;9.688;2023-03-04T09:50:03;21.30;;;13.10;;
45043;SDS011;30784;48.490;9.688;2023-03-04T09:55:38;23.58;;;14.60;;
45043;SDS011;30784;48.490;9.688;2023-03-04T09:58:15;22.98;;;13.18;;
45043;SDS011;30784;48.490;9.688;2023-03-04T10:00:45;24.35;;;13.85;;
45043;SDS011;30784;48.490;9.688;2023-03-04T10:03:19;23.50;;;13.73;;
45043;SDS011;30784;48.490;9.688;2023-03-04T10:05:59;25.30;;;14.30;;
45043;SDS011;30784;48.490;9.688;2023-03-04T10:11:38;26.70;;;14.98;;
45043;SDS011;30784;48.490;9.688;2023-03-04T10:19:22;28.48;;;14.90;;
45043;SDS011;30784;48.490;9.688;2023-03-04T10:21:53;26.67;;;15.23;;
45043;SDS011;30784;48.490;9.688;2023-03-04T10:24:19;29.08;;;16.60;;
45043;SDS011;30784;48.490;9.688;2023-03-04T10:26:50;29.00;;;15.43;;
45043;SDS011;30784;48.490;9.688;2023-03-04T10:31:46;33.15;;;16.67;;
45043;SDS011;30784;48.490;9.688;2023-03-04T10:34:14;31.42;;;16.45;;
45043;SDS011;30784;48.490;9.688;2023-03-04T10:39:23;32.10;;;18.38;;
45043;SDS011;30784;48.490;9.688;2023-03-04T10:42:09;32.42;;;17.00;;
45043;SDS011;30784;48.490;9.688;2023-03-04T10:44:58;32.95;;;17.73;;
45043;SDS011;30784;48.490;9.688;2023-03-04T10:47:28;32.45;;;16.58;;
45043;SDS011;30784;48.490;9.688;2023-03-04T10:49:58;31.63;;;15.93;;
45043;SDS011;30784;48.490;9.688;2023-03-04T10:52:35;34.20;;;17.00;;
45043;SDS011;30784;48.490;9.688;2023-03-04T10:55:14;32.95;;;16.48;;
45043;SDS011;30784;48.490;9.688;2023-03-04T10:57:43;33.03;;;17.00;;
45043;SDS011;30784;48.490;9.688;2023-03-04T11:02:42;31.70;;;15.65;;
45043;SDS011;30784;48.490;9.688;2023-03-04T11:05:22;31.58;;;15.50;;
45043;SDS011;30784;48.490;9.688;2023-03-04T11:07:50;26.70;;;14.05;;
45043;SDS011;30784;48.490;9.688;2023-03-04T11:15:24;31.45;;;15.85;;
45043;SDS011;30784;48.490;9.688;2023-03-04T11:17:53;30.83;;;16.42;;
45043;SDS011;30784;48.490;9.688;2023-03-04T11:20:31;30.02;;;15.13;;
45043;SDS011;30784;48.490;9.688;2023-03-04T11:23:00;26.05;;;13.82;;
45043;SDS011;30784;48.490;9.688;2023-03-04T11:25:35;24.23;;;12.38;;
45043;SDS011;30784;48.490;9.688;2023-03-04T11:28:25;26.23;;;13.07;;
45043;SDS011;30784;48.490;9.688;2023-03-04T11:31:11;26.13;;;12.68;;
45043;SDS011;30784;48.490;9.688;2023-03-04T11:33:46;27.33;;;13.65;;
45043;SDS011;30784;48.490;9.688;2023-03-04T11:38:52;24.35;;;12.13;;
45043;SDS011;30784;48.490;9.688;2023-03-04T11:41:28;24.48;;;12.02;;
45043;SDS011;30784;48.490;9.688;2023-03-04T11:43:56;26.35;;;12.77;;
45043;SDS011;30784;48.490;9.688;2023-03-04T11:46:27;28.02;;;14.75;;
45043;SDS011;30784;48.490;9.688;2023-03-04T11:54:28;22.48;;;11.68;;
45043;SDS011;30784;48.490;9.688;2023-03-04T11:57:06;23.45;;;11.40;;
45043;SDS011;30784;48.490;9.688;2023-03-04T11:59:51;26.98;;;13.30;;
45043;SDS011;30784;48.490;9.688;2023-03-04T12:02:21;24.83;;;12.05;;
45043;SDS011;30784;48.490;9.688;2023-03-04T12:07:53;22.20;;;11.43;;
45043;SDS011;30784;48.490;9.688;2023-03-04T12:13:25;26.08;;;11.45;;
45043;SDS011;30784;48.490;9.688;2023-03-04T12:21:32;23.88;;;11.45;;
45043;SDS011;30784;48.490;9.688;2023-03-04T12:26:50;24.90;;;11.57;;
45043;SDS011;30784;48.490;9.688;2023-03-04T12:29:45;25.48;;;11.90;;
45043;SDS011;30784;48.490;9.688;2023-03-04T12:32:31;24.35;;;10.68;;
45043;SDS011;30784;48.490;9.688;2023-03-04T12:54:33;24.02;;;11.00;;
45043;SDS011;30784;48.490;9.688;2023-03-04T13:00:03;24.38;;;11.98;;
45043;SDS011;30784;48.490;9.688;2023-03-04T13:02:47;28.90;;;13.15;;
45043;SDS011;30784;48.490;9.688;2023-03-04T13:05:53;24.13;;;12.02;;
45043;SDS011;30784;48.490;9.688;2023-03-04T13:11:03;23.20;;;11.88;;
45043;SDS011;30784;48.490;9.688;2023-03-04T13:14:06;26.40;;;13.52;;
45043;SDS011;30784;48.490;9.688;2023-03-04T13:16:47;24.77;;;12.60;;
45043;SDS011;30784;48.490;9.688;2023-03-04T13:22:29;25.77;;;13.35;;
45043;SDS011;30784;48.490;9.688;2023-03-04T13:56:27;28.55;;;15.10;;
45043;SDS011;30784;48.490;9.688;2023-03-04T14:06:49;30.92;;;16.63;;
45043;SDS011;30784;48.490;9.688;2023-03-04T14:09:18;31.50;;;16.23;;
45043;SDS011;30784;48.490;9.688;2023-03-04T14:11:49;31.30;;;17.38;;
45043;SDS011;30784;48.490;9.688;2023-03-04T14:14:18;32.47;;;17.13;;
45043;SDS011;30784;48.490;9.688;2023-03-04T14:16:47;32.33;;;17.63;;
45043;SDS011;30784;48.490;9.688;2023-03-04T14:19:26;32.30;;;16.45;;
45043;SDS011;30784;48.490;9.688;2023-03-04T14:21:52;29.15;;;16.73;;
45043;SDS011;30784;48.490;9.688;2023-03-04T14:24:19;31.25;;;16.30;;
45043;SDS011;30784;48.490;9.688;2023-03-04T14:26:46;40.13;;;20.63;;
45043;SDS011;30784;48.490;9.688;2023-03-04T14:29:26;36.88;;;17.38;;
45043;SDS011;30784;48.490;9.688;2023-03-04T14:31:56;33.85;;;18.17;;
45043;SDS011;30784;48.490;9.688;2023-03-04T14:34:23;33.38;;;18.50;;
45043;SDS011;30784;48.490;9.688;2023-03-04T14:36:53;31.88;;;16.67;;
45043;SDS011;30784;48.490;9.688;2023-03-04T14:39:19;37.80;;;20.58;;
45043;SDS011;30784;48.490;9.688;2023-03-04T14:41:49;39.03;;;20.90;;
45043;SDS011;30784;48.490;9.688;2023-03-04T14:46:58;33.75;;;17.38;;
45043;SDS011;30784;48.490;9.688;2023-03-04T14:49:31;36.55;;;19.20;;
45043;SDS011;30784;48.490;9.688;2023-03-04T14:51:59;38.00;;;19.55;;
45043;SDS011;30784;48.490;9.688;2023-03-04T14:54:32;36.50;;;18.85;;
45043;SDS011;30784;48.490;9.688;2023-03-04T14:57:13;37.65;;;19.60;;
45043;SDS011;30784;48.490;9.688;2023-03-04T14:59:53;33.08;;;18.20;;
45043;SDS011;30784;48.490;9.688;2023-03-04T15:02:27;36.22;;;19.27;;
45043;SDS011;30784;48.490;9.688;2023-03-04T15:07:35;42.17;;;22.00;;
45043;SDS011;30784;48.490;9.688;2023-03-04T15:10:05;38.75;;;21.42;;
45043;SDS011;30784;48.490;9.688;2023-03-04T15:12:35;40.00;;;21.13;;
45043;SDS011;30784;48.490;9.688;2023-03-04T15:15:03;38.00;;;20.70;;
45043;SDS011;30784;48.490;9.688;2023-03-04T15:17:59;38.08;;;20.42;;
45043;SDS011;30784;48.490;9.688;2023-03-04T15:20:57;38.92;;;20.45;;
45043;SDS011;30784;48.490;9.688;2023-03-04T15:23:25;42.03;;;22.05;;
45043;SDS011;30784;48.490;9.688;2023-03-04T15:25:56;40.83;;;22.30;;
45043;SDS011;30784;48.490;9.688;2023-03-04T15:28:24;38.65;;;21.33;;
45043;SDS011;30784;48.490;9.688;2023-03-04T15:30:51;39.53;;;20.92;;
45043;SDS011;30784;48.490;9.688;2023-03-04T15:33:17;42.28;;;21.00;;
45043;SDS011;30784;48.490;9.688;2023-03-04T15:35:51;49.85;;;24.20;;
45043;SDS011;30784;48.490;9.688;2023-03-04T15:38:20;43.38;;;22.85;;
45043;SDS011;30784;48.490;9.688;2023-03-04T15:40:46;39.85;;;21.63;;
45043;SDS011;30784;48.490;9.688;2023-03-04T15:43:14;44.30;;;23.58;;
45043;SDS011;30784;48.490;9.688;2023-03-04T15:45:41;40.57;;;22.30;;
45043;SDS011;30784;48.490;9.688;2023-03-04T15:48:09;43.25;;;22.92;;
45043;SDS011;30784;48.490;9.688;2023-03-04T15:50:39;44.78;;;23.13;;
45043;SDS011;30784;48.490;9.688;2023-03-04T15:53:08;42.03;;;21.73;;
45043;SDS011;30784;48.490;9.688;2023-03-04T15:55:39;41.13;;;22.33;;
45043;SDS011;30784;48.490;9.688;2023-03-04T15:58:08;44.60;;;23.58;;
45043;SDS011;30784;48.490;9.688;2023-03-04T16:00:35;43.70;;;23.17;;
45043;SDS011;30784;48.490;9.688;2023-03-04T16:03:01;46.42;;;23.45;;
45043;SDS011;30784;48.490;9.688;2023-03-04T16:05:26;40.67;;;19.83;;
45043;SDS011;30784;48.490;9.688;2023-03-04T16:07:52;41.00;;;20.73;;
45043;SDS011;30784;48.490;9.688;2023-03-04T16:12:49;36.53;;;19.27;;
45043;SDS011;30784;48.490;9.688;2023-03-04T16:15:17;36.25;;;18.95;;
45043;SDS011;30784;48.490;9.688;2023-03-04T16:17:44;34.03;;;18.15;;
45043;SDS011;30784;48.490;9.688;2023-03-04T16:20:11;39.15;;;18.40;;
45043;SDS011;30784;48.490;9.688;2023-03-04T16:22:38;37.65;;;18.92;;
45043;SDS011;30784;48.490;9.688;2023-03-04T16:25:05;36.10;;;19.02;;
45043;SDS011;30784;48.490;9.688;2023-03-04T16:27:31;33.00;;;17.70;;
45043;SDS011;30784;48.490;9.688;2023-03-04T16:29:56;36.42;;;19.50;;
45043;SDS011;30784;48.490;9.688;2023-03-04T16:32:22;33.63;;;18.08;;
45043;SDS011;30784;48.490;9.688;2023-03-04T16:34:48;34.88;;;17.77;;